createdAt,value
2022-10-23T00:01:16.792Z,18.73
2022-10-23T00:03:44.241Z,19.08
2022-10-23T00:06:11.698Z,18.90
2022-10-23T00:08:38.336Z,19.15
2022-10-23T00:11:13.683Z,19.27
2022-10-23T00:13:40.639Z,18.27
2022-10-23T00:16:08.230Z,19.55
2022-10-23T00:18:35.295Z,18.20
2022-10-23T00:21:02.711Z,18.65
2022-10-23T00:23:29.231Z,18.15
2022-10-23T00:25:55.655Z,18.60
2022-10-23T00:28:22.196Z,18.67
2022-10-23T00:30:48.717Z,17.77
2022-10-23T00:33:15.161Z,18.70
2022-10-23T00:35:42.716Z,18.02
2022-10-23T00:38:10.555Z,18.33
2022-10-23T00:40:37.950Z,18.77
2022-10-23T00:43:05.276Z,19.23
2022-10-23T00:45:33.415Z,18.95
2022-10-23T00:48:01.747Z,18.42
2022-10-23T00:50:31.651Z,19.20
2022-10-23T00:53:01.715Z,19.10
2022-10-23T00:55:29.218Z,19.50
2022-10-23T00:57:56.038Z,18.15
2022-10-23T01:00:26.282Z,18.90
2022-10-23T01:02:54.572Z,17.63
2022-10-23T01:05:27.142Z,18.88
2022-10-23T01:07:59.479Z,19.67
2022-10-23T01:10:39.259Z,17.92
2022-10-23T01:13:12.573Z,17.98
2022-10-23T01:15:45.035Z,17.70
2022-10-23T01:18:25.896Z,17.33
2022-10-23T01:21:17.951Z,17.60
2022-10-23T01:24:04.208Z,17.27
2022-10-23T01:26:39.563Z,17.38
2022-10-23T01:29:26.004Z,16.63
2022-10-23T01:32:00.573Z,16.70
2022-10-23T01:34:32.794Z,17.05
2022-10-23T01:37:03.941Z,17.90
2022-10-23T01:39:40.817Z,17.75
2022-10-23T01:42:13.270Z,18.70
2022-10-23T01:44:48.375Z,17.58
2022-10-23T01:47:18.467Z,17.23
2022-10-23T01:49:47.451Z,17.08
2022-10-23T01:52:17.499Z,17.45
2022-10-23T01:54:46.309Z,17.23
2022-10-23T01:57:16.285Z,16.13
2022-10-23T01:59:48.315Z,17.20
2022-10-23T02:02:17.845Z,16.20
2022-10-23T02:05:03.500Z,15.75
2022-10-23T02:07:30.309Z,16.80
2022-10-23T02:09:56.723Z,17.05
2022-10-23T02:12:44.864Z,16.90
2022-10-23T02:15:36.267Z,17.10
2022-10-23T02:18:21.528Z,15.85
2022-10-23T02:20:58.863Z,15.60
2022-10-23T02:23:40.112Z,16.55
2022-10-23T02:26:20.900Z,16.80
2022-10-23T02:28:52.155Z,15.98
2022-10-23T02:31:22.150Z,16.00
2022-10-23T02:33:49.018Z,16.43
2022-10-23T02:36:19.494Z,17.58
2022-10-23T02:38:45.986Z,15.88
2022-10-23T02:41:18.087Z,15.75
2022-10-23T02:44:10.522Z,16.45
2022-10-23T02:46:48.963Z,15.77
2022-10-23T02:49:36.525Z,15.48
2022-10-23T02:52:06.522Z,15.10
2022-10-23T02:54:54.699Z,15.48
2022-10-23T02:57:34.908Z,15.32
2022-10-23T03:00:07.939Z,15.30
2022-10-23T03:02:44.211Z,14.68
2022-10-23T03:05:15.363Z,14.75
2022-10-23T03:07:42.369Z,15.10
2022-10-23T03:10:09.446Z,15.23
2022-10-23T03:12:36.024Z,15.00
2022-10-23T03:15:02.371Z,15.93
2022-10-23T03:17:28.762Z,15.75
2022-10-23T03:19:55.167Z,15.48
2022-10-23T03:22:21.532Z,14.43
2022-10-23T03:24:47.884Z,16.03
2022-10-23T03:27:15.133Z,15.23
2022-10-23T03:29:44.001Z,15.57
2022-10-23T03:32:10.364Z,15.25
2022-10-23T03:34:36.844Z,15.52
2022-10-23T03:37:03.261Z,15.20
2022-10-23T03:39:29.597Z,14.77
2022-10-23T03:41:56.035Z,14.80
2022-10-23T03:44:22.389Z,14.73
2022-10-23T03:46:48.785Z,15.80
2022-10-23T03:49:15.252Z,14.73
2022-10-23T03:51:41.704Z,15.18
2022-10-23T03:54:08.511Z,14.88
2022-10-23T03:56:35.009Z,14.43
2022-10-23T03:59:01.415Z,15.52
2022-10-23T04:01:27.954Z,14.23
2022-10-23T04:03:54.436Z,15.00
2022-10-23T04:06:20.791Z,14.65
2022-10-23T04:08:47.178Z,16.15
2022-10-23T04:11:13.638Z,15.73
2022-10-23T04:13:40.040Z,14.97
2022-10-23T04:16:06.557Z,14.35
2022-10-23T04:18:32.907Z,15.05
2022-10-23T04:20:59.258Z,15.30
2022-10-23T04:23:25.599Z,15.20
2022-10-23T04:25:52.029Z,15.13
2022-10-23T04:28:18.386Z,15.30
2022-10-23T04:30:44.732Z,15.55
2022-10-23T04:33:11.084Z,15.70
2022-10-23T04:35:37.464Z,15.93
2022-10-23T04:38:03.951Z,16.20
2022-10-23T04:40:30.325Z,17.05
2022-10-23T04:42:56.685Z,16.92
2022-10-23T04:45:23.053Z,17.65
2022-10-23T04:47:49.525Z,17.58
2022-10-23T04:50:16.450Z,16.60
2022-10-23T04:52:43.095Z,17.17
2022-10-23T04:55:09.826Z,16.73
2022-10-23T04:57:36.259Z,17.13
2022-10-23T05:00:05.921Z,17.17
2022-10-23T05:02:32.423Z,17.57
2022-10-23T05:04:58.757Z,17.58
2022-10-23T05:07:25.099Z,17.02
2022-10-23T05:09:51.504Z,17.08
2022-10-23T05:12:18.343Z,17.20
2022-10-23T05:14:44.688Z,17.20
2022-10-23T05:17:22.638Z,17.33
2022-10-23T05:19:55.061Z,18.77
2022-10-23T05:22:25.372Z,18.58
2022-10-23T05:24:51.849Z,18.55
2022-10-23T05:27:18.199Z,18.07
2022-10-23T05:29:44.600Z,17.67
2022-10-23T05:32:14.393Z,18.65
2022-10-23T05:34:41.991Z,17.67
2022-10-23T05:37:11.226Z,18.42
2022-10-23T05:39:37.820Z,18.93
2022-10-23T05:42:04.313Z,18.83
2022-10-23T05:44:30.664Z,17.73
2022-10-23T05:46:56.995Z,18.40
2022-10-23T05:49:26.866Z,19.55
2022-10-23T05:51:53.292Z,18.63
2022-10-23T05:54:19.640Z,18.42
2022-10-23T05:56:46.048Z,17.48
2022-10-23T05:59:12.412Z,18.10
2022-10-23T06:01:38.961Z,17.60
2022-10-23T06:04:05.801Z,18.17
2022-10-23T06:06:32.192Z,17.17
2022-10-23T06:08:58.537Z,17.75
2022-10-23T06:11:24.994Z,17.35
2022-10-23T06:13:51.493Z,16.73
2022-10-23T06:16:20.584Z,18.17
2022-10-23T06:18:47.779Z,16.75
2022-10-23T06:21:14.891Z,17.63
2022-10-23T06:23:43.764Z,17.52
2022-10-23T06:26:12.500Z,18.45
2022-10-23T06:28:39.179Z,18.70
2022-10-23T06:31:07.118Z,17.80
2022-10-23T06:33:33.919Z,18.55
2022-10-23T06:36:00.302Z,18.05
2022-10-23T06:38:26.686Z,18.13
2022-10-23T06:40:54.416Z,18.63
2022-10-23T06:43:20.954Z,18.20
2022-10-23T06:45:47.403Z,18.33
2022-10-23T06:48:13.967Z,17.35
2022-10-23T06:50:40.413Z,17.50
2022-10-23T06:53:07.376Z,16.73
2022-10-23T06:55:33.895Z,17.50
2022-10-23T06:58:00.395Z,17.35
2022-10-23T07:00:26.917Z,16.50
2022-10-23T07:02:53.348Z,17.17
2022-10-23T07:05:20.436Z,16.53
2022-10-23T07:07:46.810Z,16.52
2022-10-23T07:12:40.679Z,16.10
2022-10-23T07:15:08.155Z,14.90
2022-10-23T07:17:34.482Z,15.03
2022-10-23T07:20:00.844Z,14.43
2022-10-23T07:22:27.183Z,14.80
2022-10-23T07:24:53.523Z,15.27
2022-10-23T07:27:20.054Z,14.27
2022-10-23T07:29:50.287Z,13.70
2022-10-23T07:32:16.688Z,12.95
2022-10-23T07:34:43.096Z,13.48
2022-10-23T07:37:09.438Z,13.35
2022-10-23T07:39:35.795Z,13.45
2022-10-23T07:42:02.166Z,13.20
2022-10-23T07:44:28.506Z,13.35
2022-10-23T07:46:54.854Z,12.30
2022-10-23T07:49:21.232Z,12.65
2022-10-23T07:51:50.555Z,12.05
2022-10-23T07:54:18.617Z,11.60
2022-10-23T07:56:44.994Z,11.75
2022-10-23T07:59:14.794Z,12.18
2022-10-23T08:01:42.907Z,12.20
2022-10-23T08:04:10.407Z,11.52
2022-10-23T08:06:36.765Z,10.63
2022-10-23T08:09:06.310Z,10.25
2022-10-23T08:11:35.483Z,10.15
2022-10-23T08:14:04.595Z,10.02
2022-10-23T08:16:32.853Z,9.38
2022-10-23T08:18:59.222Z,10.37
2022-10-23T08:21:25.611Z,10.20
2022-10-23T08:23:59.487Z,9.98
2022-10-23T08:26:29.331Z,10.00
2022-10-23T08:28:58.281Z,9.88
2022-10-23T08:31:24.934Z,10.73
2022-10-23T08:33:51.365Z,9.73
2022-10-23T08:36:23.708Z,9.18
2022-10-23T08:38:53.522Z,9.50
2022-10-23T08:41:32.273Z,9.45
2022-10-23T08:43:58.603Z,8.90
2022-10-23T08:46:30.048Z,8.77
2022-10-23T08:49:16.546Z,8.77
2022-10-23T08:51:46.884Z,9.00
2022-10-23T08:54:19.346Z,9.27
2022-10-23T08:56:52.228Z,9.10
2022-10-23T08:59:39.873Z,8.10
2022-10-23T09:02:26.768Z,8.48
2022-10-23T09:04:55.700Z,7.80
2022-10-23T09:08:01.271Z,8.57
2022-10-23T09:10:40.374Z,7.43
2022-10-23T09:13:32.337Z,8.38
2022-10-23T09:16:10.753Z,7.90
2022-10-23T09:18:40.165Z,8.57
2022-10-23T09:21:09.831Z,8.57
2022-10-23T09:23:36.304Z,7.97
2022-10-23T09:26:12.591Z,7.80
2022-10-23T09:28:47.338Z,8.07
2022-10-23T09:31:13.743Z,7.20
2022-10-23T09:33:40.424Z,7.90
2022-10-23T09:36:17.915Z,7.10
2022-10-23T09:38:46.955Z,6.63
2022-10-23T09:41:19.548Z,7.00
2022-10-23T09:43:46.094Z,6.45
2022-10-23T09:46:12.888Z,6.53
2022-10-23T09:48:42.194Z,6.33
2022-10-23T09:51:20.949Z,6.10
2022-10-23T09:53:55.315Z,6.20
2022-10-23T09:56:33.222Z,5.65
2022-10-23T09:59:12.985Z,5.97
2022-10-23T10:01:48.871Z,5.90
2022-10-23T10:04:15.654Z,5.95
2022-10-23T10:09:16.518Z,5.78
2022-10-23T10:11:54.017Z,5.88
2022-10-23T10:14:39.874Z,5.77
2022-10-23T10:17:30.880Z,5.32
2022-10-23T10:20:12.162Z,5.43
2022-10-23T10:22:46.756Z,5.53
2022-10-23T10:25:36.144Z,5.60
2022-10-23T10:28:11.345Z,4.87
2022-10-23T10:31:02.888Z,5.10
2022-10-23T10:33:54.758Z,5.43
2022-10-23T10:36:49.124Z,5.10
2022-10-23T10:39:27.628Z,4.60
2022-10-23T10:42:26.526Z,4.67
2022-10-23T10:45:20.581Z,4.90
2022-10-23T10:47:51.675Z,4.80
2022-10-23T10:50:27.864Z,4.53
2022-10-23T10:53:14.742Z,4.60
2022-10-23T10:55:42.650Z,4.63
2022-10-23T10:58:21.302Z,4.78
2022-10-23T11:00:53.126Z,5.07
2022-10-23T11:03:34.972Z,4.75
2022-10-23T11:06:13.033Z,4.80
2022-10-23T11:08:56.140Z,4.60
2022-10-23T11:11:31.990Z,4.57
2022-10-23T11:13:58.526Z,4.82
2022-10-23T11:16:29.769Z,4.90
2022-10-23T11:19:20.343Z,4.78
2022-10-23T11:21:56.923Z,4.80
2022-10-23T11:24:44.107Z,4.70
2022-10-23T11:27:41.512Z,4.72
2022-10-23T11:30:17.031Z,4.70
2022-10-23T11:33:00.577Z,4.60
2022-10-23T11:35:35.015Z,4.90
2022-10-23T11:38:14.615Z,4.90
2022-10-23T11:43:30.743Z,4.50
2022-10-23T11:45:58.113Z,4.57
2022-10-23T11:48:40.646Z,4.27
2022-10-23T11:51:27.412Z,4.45
2022-10-23T11:54:04.403Z,4.35
2022-10-23T11:56:31.234Z,4.13
2022-10-23T11:58:59.119Z,4.00
2022-10-23T12:01:39.299Z,3.73
2022-10-23T12:04:14.899Z,3.90
2022-10-23T12:06:47.793Z,3.47
2022-10-23T12:09:31.952Z,4.07
2022-10-23T12:12:30.577Z,3.70
2022-10-23T12:15:09.099Z,3.80
2022-10-23T12:17:37.991Z,3.40
2022-10-23T12:20:19.381Z,3.50
2022-10-23T12:23:01.539Z,3.55
2022-10-23T12:25:52.163Z,3.30
2022-10-23T12:28:44.696Z,3.53
2022-10-23T12:31:26.740Z,3.40
2022-10-23T12:33:53.105Z,3.47
2022-10-23T12:36:43.000Z,3.45
2022-10-23T12:39:33.340Z,3.80
2022-10-23T12:42:00.955Z,3.33
2022-10-23T12:44:28.874Z,3.50
2022-10-23T12:46:59.022Z,3.42
2022-10-23T12:49:28.671Z,3.20
2022-10-23T12:52:04.174Z,3.70
2022-10-23T12:54:32.716Z,3.63
2022-10-23T12:56:59.326Z,3.40
2022-10-23T12:59:37.107Z,3.60
2022-10-23T13:02:34.101Z,3.72
2022-10-23T13:05:05.508Z,3.88
2022-10-23T13:07:37.212Z,4.20
2022-10-23T13:10:05.225Z,3.80
2022-10-23T13:12:35.321Z,3.78
2022-10-23T13:15:06.114Z,3.55
2022-10-23T13:17:46.392Z,3.30
2022-10-23T13:20:23.721Z,3.23
2022-10-23T13:23:00.480Z,3.70
2022-10-23T13:25:32.965Z,3.30
2022-10-23T13:28:08.191Z,3.00
2022-10-23T13:30:41.999Z,3.10
2022-10-23T13:33:20.633Z,2.90
2022-10-23T13:36:01.520Z,3.35
2022-10-23T13:38:29.733Z,3.20
2022-10-23T13:40:59.048Z,3.13
2022-10-23T13:43:26.695Z,3.22
2022-10-23T13:45:53.148Z,3.50
2022-10-23T13:48:20.995Z,3.55
2022-10-23T13:50:47.483Z,3.40
2022-10-23T13:53:14.526Z,3.45
2022-10-23T13:55:43.763Z,3.35
2022-10-23T13:58:11.086Z,3.23
2022-10-23T14:00:38.687Z,2.95
2022-10-23T14:03:05.619Z,2.88
2022-10-23T14:05:32.116Z,2.70
2022-10-23T14:07:58.484Z,3.08
2022-10-23T14:10:27.595Z,2.90
2022-10-23T14:12:54.967Z,2.70
2022-10-23T14:15:22.039Z,2.88
2022-10-23T14:17:48.416Z,3.28
2022-10-23T14:20:17.295Z,2.97
2022-10-23T14:22:45.162Z,3.30
2022-10-23T14:25:11.901Z,2.88
2022-10-23T14:27:38.289Z,3.17
2022-10-23T14:30:05.690Z,3.03
2022-10-23T14:32:32.022Z,3.20
2022-10-23T14:34:58.524Z,4.27
2022-10-23T14:37:24.928Z,3.20
2022-10-23T14:39:51.272Z,3.17
2022-10-23T14:42:18.162Z,3.22
2022-10-23T14:44:44.940Z,3.92
2022-10-23T14:47:11.609Z,2.80
2022-10-23T14:49:39.997Z,3.40
2022-10-23T14:52:06.757Z,3.47
2022-10-23T14:54:35.184Z,2.83
2022-10-23T14:57:02.269Z,3.20
2022-10-23T14:59:28.675Z,3.40
2022-10-23T15:01:55.136Z,3.17
2022-10-23T15:04:21.484Z,3.25
2022-10-23T15:06:47.865Z,3.22
2022-10-23T15:09:14.990Z,3.28
2022-10-23T15:11:41.548Z,3.43
2022-10-23T15:14:08.013Z,3.40
2022-10-23T15:16:40.980Z,3.80
2022-10-23T15:19:12.117Z,2.90
2022-10-23T15:21:42.011Z,3.40
2022-10-23T15:24:08.503Z,3.40
2022-10-23T15:26:34.927Z,3.65
2022-10-23T15:29:02.065Z,3.35
2022-10-23T15:31:37.626Z,3.47
2022-10-23T15:34:05.508Z,3.50
2022-10-23T15:36:32.269Z,3.60
2022-10-23T15:38:58.672Z,3.60
2022-10-23T15:41:32.784Z,3.28
2022-10-23T15:44:00.393Z,3.55
2022-10-23T15:46:26.797Z,3.75
2022-10-23T15:48:53.710Z,3.27
2022-10-23T15:51:20.329Z,3.28
2022-10-23T15:53:46.779Z,3.38
2022-10-23T15:56:13.142Z,3.35
2022-10-23T15:58:39.771Z,3.85
2022-10-23T16:01:06.825Z,3.30
2022-10-23T16:03:34.857Z,3.40
2022-10-23T16:06:06.059Z,3.30
2022-10-23T16:08:32.544Z,3.35
2022-10-23T16:10:59.751Z,3.40
2022-10-23T16:13:26.874Z,3.50
2022-10-23T16:15:54.061Z,3.63
2022-10-23T16:18:22.294Z,3.30
2022-10-23T16:20:50.842Z,3.58
2022-10-23T16:23:17.495Z,3.40
2022-10-23T16:25:43.862Z,3.30
2022-10-23T16:28:10.227Z,3.20
2022-10-23T16:30:43.876Z,3.35
2022-10-23T16:33:10.419Z,3.22
2022-10-23T16:35:37.263Z,3.20
2022-10-23T16:38:03.866Z,3.10
2022-10-23T16:40:30.295Z,3.50
2022-10-23T16:42:57.854Z,2.72
2022-10-23T16:45:24.324Z,3.13
2022-10-23T16:47:50.747Z,3.25
2022-10-23T16:50:17.209Z,3.27
2022-10-23T16:52:43.848Z,2.90
2022-10-23T16:55:10.414Z,3.08
2022-10-23T16:57:36.910Z,3.00
2022-10-23T17:00:05.363Z,3.17
2022-10-23T17:02:32.271Z,3.30
2022-10-23T17:04:58.835Z,3.60
2022-10-23T17:07:25.379Z,3.08
2022-10-23T17:09:51.727Z,2.92
2022-10-23T17:12:18.130Z,3.63
2022-10-23T17:14:44.496Z,3.47
2022-10-23T17:17:11.072Z,3.30
2022-10-23T17:19:45.181Z,3.08
2022-10-23T17:22:13.520Z,3.10
2022-10-23T17:24:41.431Z,3.50
2022-10-23T17:27:07.943Z,3.10
2022-10-23T17:29:34.429Z,3.22
2022-10-23T17:32:00.928Z,2.70
2022-10-23T17:34:27.322Z,3.00
2022-10-23T17:36:55.204Z,3.05
2022-10-23T17:39:24.891Z,3.00
2022-10-23T17:41:51.943Z,3.30
2022-10-23T17:44:18.815Z,2.95
2022-10-23T17:46:45.317Z,2.80
2022-10-23T17:49:12.675Z,2.70
2022-10-23T17:51:39.222Z,2.80
2022-10-23T17:54:08.388Z,2.95
2022-10-23T17:56:37.519Z,2.40
2022-10-23T17:59:15.521Z,3.05
2022-10-23T18:01:46.717Z,2.55
2022-10-23T18:04:14.235Z,2.50
2022-10-23T18:06:44.599Z,2.85
2022-10-23T18:09:11.271Z,2.55
2022-10-23T18:11:45.271Z,3.13
2022-10-23T18:14:13.497Z,2.65
2022-10-23T18:16:40.721Z,3.10
2022-10-23T18:19:07.979Z,2.70
2022-10-23T18:21:35.762Z,2.95
2022-10-23T18:24:02.370Z,2.83
2022-10-23T18:26:31.193Z,2.75
2022-10-23T18:28:59.172Z,3.20
2022-10-23T18:31:27.635Z,3.13
2022-10-23T18:34:04.078Z,2.80
2022-10-23T18:36:33.532Z,3.05
2022-10-23T18:39:00.064Z,2.72
2022-10-23T18:41:27.082Z,3.00
2022-10-23T18:43:54.640Z,2.75
2022-10-23T18:46:21.731Z,2.72
2022-10-23T18:48:50.741Z,2.80
2022-10-23T18:51:20.505Z,2.67
2022-10-23T18:53:47.997Z,3.20
2022-10-23T18:56:22.657Z,3.20
2022-10-23T18:58:54.971Z,3.85
2022-10-23T19:01:23.224Z,3.30
2022-10-23T19:03:50.159Z,3.30
2022-10-23T19:06:17.179Z,3.07
2022-10-23T19:08:44.786Z,3.00
2022-10-23T19:11:13.099Z,2.72
2022-10-23T19:13:40.445Z,3.13
2022-10-23T19:16:10.579Z,2.90
2022-10-23T19:18:40.569Z,2.87
2022-10-23T19:21:07.688Z,2.90
2022-10-23T19:23:36.493Z,2.88
2022-10-23T19:26:08.964Z,2.70
2022-10-23T19:28:43.240Z,2.63
2022-10-23T19:31:10.455Z,2.53
2022-10-23T19:33:38.914Z,2.75
2022-10-23T19:36:07.195Z,2.60
2022-10-23T19:38:36.532Z,2.42
2022-10-23T19:41:03.914Z,2.30
2022-10-23T19:43:30.482Z,2.80
2022-10-23T19:45:59.797Z,2.60
2022-10-23T19:48:26.329Z,2.78
2022-10-23T19:50:52.860Z,2.65
2022-10-23T19:53:19.971Z,2.20
2022-10-23T19:55:46.419Z,2.60
2022-10-23T19:58:12.934Z,2.35
2022-10-23T20:00:39.528Z,2.50
2022-10-23T20:03:06.006Z,2.55
2022-10-23T20:05:32.880Z,2.47
2022-10-23T20:07:59.717Z,2.73
2022-10-23T20:10:26.186Z,2.45
2022-10-23T20:12:57.104Z,2.40
2022-10-23T20:15:40.362Z,2.53
2022-10-23T20:18:06.796Z,2.35
2022-10-23T20:20:33.229Z,2.33
2022-10-23T20:23:00.757Z,2.50
2022-10-23T20:25:27.500Z,2.10
2022-10-23T20:27:53.925Z,2.30
2022-10-23T20:30:20.359Z,2.30
2022-10-23T20:32:46.895Z,2.10
2022-10-23T20:35:13.478Z,2.10
2022-10-23T20:37:39.896Z,2.33
2022-10-23T20:40:06.903Z,2.00
2022-10-23T20:42:33.332Z,2.40
2022-10-23T20:44:59.713Z,2.30
2022-10-23T20:47:26.115Z,1.92
2022-10-23T20:49:52.473Z,2.10
2022-10-23T20:52:18.860Z,2.10
2022-10-23T20:54:45.213Z,2.03
2022-10-23T20:57:11.634Z,1.93
2022-10-23T20:59:38.052Z,1.95
2022-10-23T21:02:04.498Z,2.17
2022-10-23T21:04:30.968Z,2.20
2022-10-23T21:07:14.094Z,1.98
2022-10-23T21:09:40.557Z,2.40
2022-10-23T21:12:07.851Z,2.20
2022-10-23T21:14:35.500Z,2.10
2022-10-23T21:17:02.342Z,2.28
2022-10-23T21:19:28.719Z,2.10
2022-10-23T21:21:55.289Z,2.07
2022-10-23T21:24:21.675Z,2.22
2022-10-23T21:26:48.087Z,2.20
2022-10-23T21:29:18.981Z,2.05
2022-10-23T21:31:55.830Z,2.00
2022-10-23T21:34:23.636Z,2.20
2022-10-23T21:39:36.442Z,2.20
2022-10-23T21:42:02.831Z,2.22
2022-10-23T21:44:29.224Z,2.20
2022-10-23T21:46:55.718Z,2.60
2022-10-23T21:49:22.187Z,2.47
2022-10-23T21:51:48.522Z,2.10
2022-10-23T21:54:15.098Z,2.47
2022-10-23T21:56:45.692Z,2.58
2022-10-23T21:59:14.490Z,2.37
2022-10-23T22:01:43.248Z,2.45
2022-10-23T22:04:11.168Z,2.53
2022-10-23T22:06:38.571Z,2.80
2022-10-23T22:09:08.528Z,2.47
2022-10-23T22:11:35.083Z,2.40
2022-10-23T22:14:01.495Z,2.75
2022-10-23T22:16:28.053Z,2.60
2022-10-23T22:18:54.573Z,2.60
2022-10-23T22:21:24.133Z,2.20
2022-10-23T22:23:51.412Z,2.40
2022-10-23T22:26:30.893Z,2.47
2022-10-23T22:29:01.228Z,2.70
2022-10-23T22:31:31.933Z,2.65
2022-10-23T22:34:08.567Z,2.60
2022-10-23T22:36:45.320Z,2.70
2022-10-23T22:39:12.445Z,2.72
2022-10-23T22:41:39.088Z,2.50
2022-10-23T22:44:05.577Z,2.45
2022-10-23T22:46:32.421Z,2.40
2022-10-23T22:48:59.108Z,2.20
2022-10-23T22:51:27.651Z,2.40
2022-10-23T22:53:54.652Z,2.42
2022-10-23T22:56:23.900Z,2.42
2022-10-23T22:58:51.172Z,2.80
2022-10-23T23:01:42.563Z,2.70
2022-10-23T23:04:19.684Z,2.40
2022-10-23T23:06:57.436Z,2.22
2022-10-23T23:09:23.843Z,2.53
2022-10-23T23:11:51.642Z,1.98
2022-10-23T23:14:22.911Z,2.27
2022-10-23T23:16:51.076Z,2.30
2022-10-23T23:19:17.479Z,2.05
2022-10-23T23:21:43.881Z,2.00
2022-10-23T23:24:11.960Z,2.17
2022-10-23T23:26:38.336Z,2.10
2022-10-23T23:29:04.805Z,1.73
2022-10-23T23:31:31.216Z,2.00
2022-10-23T23:33:57.617Z,2.15
2022-10-23T23:36:26.520Z,2.22
2022-10-23T23:38:53.315Z,2.20
2022-10-23T23:41:21.245Z,1.73
2022-10-23T23:43:48.662Z,1.90
2022-10-23T23:46:15.936Z,1.67
2022-10-23T23:48:47.332Z,1.50
2022-10-23T23:51:19.503Z,1.53
2022-10-23T23:53:46.288Z,1.70
2022-10-23T23:56:13.302Z,1.77
2022-10-23T23:58:39.757Z,1.55
